Vega Desgagnes — VOCQ — position and weather

sailwx.info

Track history (hours):
 
Tides and Currents Weather Stations Pressure Air Temp Water Temp Dewpoint Dewpoint Depression Visibility Wind Speed Wind Dir Waves Ship Positions

Vega Desgagnes

Last reported at 2014-Oct-29 18:25 UTC. Time now 2014-Oct-31 09:49 UTC.
Position N 44°01' W 076°30'.

Length 141 m; draft 7.2 m.

Type: Tanker. MMSI: 316003770.

Date/timePositionNaut miles runAvg speedWind from/ knotsBaromVisibWave heightAir tempDewpointWater temp
2014-Oct-29 18:25N 44°01' W 076°30'1112.4
2014-Oct-29 17:33N 44°09' W 076°20'102 7.2
2014-Oct-29 03:25N 45°08' W 074°24'1110.7
2014-Oct-29 02:25N 45°14' W 074°11'8 8.5
2014-Oct-29 01:32N 45°14' W 074°01'6 5.9
2014-Oct-29 00:34N 45°18' W 073°56'1 0.9
2014-Oct-28 23:34N 45°19' W 073°55'5 4.7
2014-Oct-28 22:34N 45°22' W 073°50'8 8.3
2014-Oct-28 21:34N 45°24' W 073°39'3 3.4
2014-Oct-28 20:34N 45°24' W 073°34'2 2.0
2014-Oct-28 19:34N 45°25' W 073°31'5 4.7
2014-Oct-28 18:34N 45°29' W 073°31'1 0.9
2014-Oct-28 17:34N 45°30' W 073°31'3 2.8
2014-Oct-28 16:33N 45°33' W 073°31'0 0.2
2014-Oct-28 14:24N 45°33' W 073°31'0 0.1
2014-Oct-28 13:32N 45°33' W 073°31'3 3.5
2014-Oct-28 12:33N 45°37' W 073°30'0 0.0
2014-Oct-28 11:33N 45°37' W 073°30'0 0.0
2014-Oct-28 10:33N 45°37' W 073°30'0 0.0
2014-Oct-28 09:33N 45°37' W 073°30'0 0.0
2014-Oct-28 08:33N 45°37' W 073°30'0 0.0
2014-Oct-28 07:33N 45°37' W 073°30'0 0.0
2014-Oct-28 06:33N 45°37' W 073°30'0 0.0
2014-Oct-28 05:33N 45°37' W 073°30'0 0.0
2014-Oct-28 04:33N 45°37' W 073°30'0 0.0
2014-Oct-28 03:33N 45°37' W 073°30'0 0.0
2014-Oct-28 02:33N 45°37' W 073°30'0 0.0
2014-Oct-28 01:33N 45°37' W 073°30'0 0.0
2014-Oct-28 00:27N 45°37' W 073°30'0 0.0
2014-Oct-27 23:33N 45°37' W 073°30'0 0.0
2014-Oct-27 22:30N 45°37' W 073°30'0 0.0
2014-Oct-27 21:33N 45°37' W 073°30'0 0.0
2014-Oct-27 20:33N 45°37' W 073°30'0 0.0
2014-Oct-27 19:33N 45°37' W 073°30'0 0.0
2014-Oct-27 18:30N 45°37' W 073°30'0 0.0
2014-Oct-27 17:27N 45°37' W 073°30'0 0.0
2014-Oct-27 16:33N 45°37' W 073°30'0 0.0
2014-Oct-27 15:33N 45°37' W 073°30'0 0.0
2014-Oct-27 14:33N 45°37' W 073°30'0 0.0
2014-Oct-27 13:33N 45°37' W 073°30'0 0.2
2014-Oct-27 12:27N 45°37' W 073°30'0 0.0
2014-Oct-26 12:33N 45°37' W 073°30'5 4.9
2014-Oct-26 11:33N 45°32' W 073°32'3 2.9
2014-Oct-26 10:33N 45°29' W 073°31'4 4.2
2014-Oct-26 09:33N 45°25' W 073°31'3 2.9
2014-Oct-26 08:33N 45°24' W 073°35'6 6.0
2014-Oct-26 07:33N 45°24' W 073°43'9 8.4
2014-Oct-26 06:32N 45°20' W 073°54'0 0.0
2014-Oct-26 05:33N 45°20' W 073°54'0 0.2
2014-Oct-26 04:34N 45°20' W 073°54'2 2.2
2014-Oct-26 03:33N 45°18' W 073°55'1 1.4
2014-Oct-26 02:33N 45°17' W 073°56'7 7.2
2014-Oct-26 01:33N 45°13' W 074°05'109 8.4
2014-Oct-25 12:32N 44°12' W 076°13'  
Track history (hours):
 
Tides and Currents Weather Stations Pressure Air Temp Water Temp Dewpoint Dewpoint Depression Visibility Wind Speed Wind Dir Waves Ship Positions

Vega Desgagnes

Last reported at 2014-Oct-29 18:25 UTC. Time now 2014-Oct-31 09:49 UTC.
Position N 44°01' W 076°30'.

Length 141 m; draft 7.2 m.

Type: Tanker. MMSI: 316003770.

Date/timePositionNaut miles runAvg speedWind from/ knotsBaromVisibWave heightAir tempDewpointWater temp
2014-Oct-29 18:25N 44°01' W 076°30'1112.4
2014-Oct-29 17:33N 44°09' W 076°20'102 7.2
2014-Oct-29 03:25N 45°08' W 074°24'1110.7
2014-Oct-29 02:25N 45°14' W 074°11'8 8.5
2014-Oct-29 01:32N 45°14' W 074°01'6 5.9
2014-Oct-29 00:34N 45°18' W 073°56'1 0.9
2014-Oct-28 23:34N 45°19' W 073°55'5 4.7
2014-Oct-28 22:34N 45°22' W 073°50'8 8.3
2014-Oct-28 21:34N 45°24' W 073°39'3 3.4
2014-Oct-28 20:34N 45°24' W 073°34'2 2.0
2014-Oct-28 19:34N 45°25' W 073°31'5 4.7
2014-Oct-28 18:34N 45°29' W 073°31'1 0.9
2014-Oct-28 17:34N 45°30' W 073°31'3 2.8
2014-Oct-28 16:33N 45°33' W 073°31'0 0.2
2014-Oct-28 14:24N 45°33' W 073°31'0 0.1
2014-Oct-28 13:32N 45°33' W 073°31'3 3.5
2014-Oct-28 12:33N 45°37' W 073°30'0 0.0
2014-Oct-28 11:33N 45°37' W 073°30'0 0.0
2014-Oct-28 10:33N 45°37' W 073°30'0 0.0
2014-Oct-28 09:33N 45°37' W 073°30'0 0.0
2014-Oct-28 08:33N 45°37' W 073°30'0 0.0
2014-Oct-28 07:33N 45°37' W 073°30'0 0.0
2014-Oct-28 06:33N 45°37' W 073°30'0 0.0
2014-Oct-28 05:33N 45°37' W 073°30'0 0.0
2014-Oct-28 04:33N 45°37' W 073°30'0 0.0
2014-Oct-28 03:33N 45°37' W 073°30'0 0.0
2014-Oct-28 02:33N 45°37' W 073°30'0 0.0
2014-Oct-28 01:33N 45°37' W 073°30'0 0.0
2014-Oct-28 00:27N 45°37' W 073°30'0 0.0
2014-Oct-27 23:33N 45°37' W 073°30'0 0.0
2014-Oct-27 22:30N 45°37' W 073°30'0 0.0
2014-Oct-27 21:33N 45°37' W 073°30'0 0.0
2014-Oct-27 20:33N 45°37' W 073°30'0 0.0
2014-Oct-27 19:33N 45°37' W 073°30'0 0.0
2014-Oct-27 18:30N 45°37' W 073°30'0 0.0
2014-Oct-27 17:27N 45°37' W 073°30'0 0.0
2014-Oct-27 16:33N 45°37' W 073°30'0 0.0
2014-Oct-27 15:33N 45°37' W 073°30'0 0.0
2014-Oct-27 14:33N 45°37' W 073°30'0 0.0
2014-Oct-27 13:33N 45°37' W 073°30'0 0.2
2014-Oct-27 12:27N 45°37' W 073°30'0 0.0
2014-Oct-26 12:33N 45°37' W 073°30'5 4.9
2014-Oct-26 11:33N 45°32' W 073°32'3 2.9
2014-Oct-26 10:33N 45°29' W 073°31'4 4.2
2014-Oct-26 09:33N 45°25' W 073°31'3 2.9
2014-Oct-26 08:33N 45°24' W 073°35'6 6.0
2014-Oct-26 07:33N 45°24' W 073°43'9 8.4
2014-Oct-26 06:32N 45°20' W 073°54'0 0.0
2014-Oct-26 05:33N 45°20' W 073°54'0 0.2
2014-Oct-26 04:34N 45°20' W 073°54'2 2.2
2014-Oct-26 03:33N 45°18' W 073°55'1 1.4
2014-Oct-26 02:33N 45°17' W 073°56'7 7.2
2014-Oct-26 01:33N 45°13' W 074°05'109 8.4
2014-Oct-25 12:32N 44°12' W 076°13'  

Dump ship's entire track history